Bonito de Santa Fe, Brazil
Current Conditions -  °F | °C
As of 5:00 AM on Thursday 18 Dec 2014 (Local Time) from SBJU Reporting Station
Broken Clouds Broken Clouds  
Wind Chill: 77°   Ceiling: 2000
Heat Index: 79°   Visibility: 6mi
Dew Point: 68°   Wind: 3mph
Humidity: 74%   Direction: 30°NNE
Pressure: 29.97"   Gusts: NA
Location:  7.31°S, 38.51°W
Report Text: SBJU 180800Z 03003KT 9999 BKN020 25/20 Q1015
Loading
Personal Weather Stations






























Interactive Weather Map New forecast layout! Learn more

10-Day Weather Forecast

Advertisements
Track Severe Weather on mobile